Latest Coastal Weather Observations for Derby

IDW60701

Issued at 11:23 am WST Monday 24 April 2017 (issued every 10 minutes, with the page automatically refreshed every 10 minutes)

About coastal observations | Map of coastal stations | Coastal observations for WA | Marine services | Other Formats
Station Details ID: 003032 Name: DERBY AERO Lat: -17.37 Lon: 123.66 Height: 6.2 m
Data from the previous 72 hours. | See also: Recent months at Derby
Date/Time
WST
Temp
°C
Wind Pressure Rain since
9am
mm
Weather Cloud Vis
km
Sea
Height
m
Swell
Dir  Spd
kts
Gust
kts
hPa Trend Height
m
Period
s
Dir
24/11:00am 32.2 W 7 10 1012.3 - 0.0 - - 10 - - - -
24/10:30am 32.2 WNW 7 10 1012.8 - 0.0 - - 10 - - - -
24/10:00am 31.3 NW 6 11 1013.4 - 0.0 - - 10 - - - -
24/09:30am 30.3 N 6 8 1013.9 - 0.0 - - 10 - - - -
24/09:00am 30.0 NNE 9 12 1014.2 - 0.0 - - 10 - - - -
24/08:30am 29.2 NNE 11 13 1014.1 - 0.0 - Partly cloudy 10 - - - -
24/08:00am 28.5 N 12 18 1014.3 - 0.0 - Cloudy 10 - - - -
24/07:30am 27.5 N 14 19 1014.2 - 0.0 - Partly cloudy 10 - - - -
24/07:00am 26.8 N 15 19 1014.1 - 0.0 - Partly cloudy 10 - - - -
24/06:30am 26.6 NNE 13 18 1013.9 - 0.0 - Partly cloudy 10 - - - -
24/06:00am 26.9 NNE 8 10 1013.3 - 0.0 - Partly cloudy 10 - - - -
24/05:30am 26.2 NNE 6 7 1012.6 - 0.0 - Cloudy 10 - - - -
24/05:00am 25.7 N 6 8 1012.4 - 0.0 - Partly cloudy 10 - - - -
24/04:30am 25.6 NE 2 5 1011.7 - 0.0 - Partly cloudy 10 - - - -
24/04:00am 25.3 NE 3 4 1011.8 - 0.0 - Cloudy 10 - - - -
24/03:30am 25.4 CALM 0 0 1011.5 - 0.0 - Partly cloudy 10 - - - -
24/03:00am 25.8 CALM 0 0 1011.1 - 0.0 - - 10 - - - -
24/02:30am 26.0 W 4 5 1010.6 - 0.0 - - 10 - - - -
24/02:00am 26.1 W 6 7 1010.6 - 0.0 - - 10 - - - -
24/01:30am 26.8 SW 5 6 1011.0 - 0.0 - Partly cloudy 10 - - - -
24/01:00am 27.1 WNW 3 5 1011.2 - 0.0 - - 10 - - - -
24/12:30am 26.8 NNW 5 6 1011.2 - 0.0 - - 10 - - - -
24/12:00am 26.6 NNW 5 6 1011.4 - 0.0 - - 10 - - - -
 
Date/Time
WST
Temp
°C
Wind Pressure Rain since
9am
mm
Weather Cloud Vis
km
Sea
Height
m
Swell
Dir  Spd
kts
Gust
kts
hPa Trend Height
m
Period
s
Dir
23/11:30pm 26.6 NNW 4 5 1011.6 - 0.0 - - 10 - - - -
23/11:00pm 27.4 N 2 4 1011.7 - 0.0 - - 10 - - - -
23/10:30pm 26.6 N 5 7 1011.7 - 0.0 - - 10 - - - -
23/10:00pm 27.3 CALM 0 0 1011.7 - 0.0 - - 10 - - - -
23/09:30pm 27.9 SE 2 3 1011.8 - 0.0 - - 10 - - - -
23/09:00pm 28.7 SSE 5 6 1011.8 - 0.0 - - 10 - - - -
23/08:30pm 29.1 SSE 5 5 1011.7 - 0.0 - - 10 - - - -
23/08:00pm 28.9 SSE 4 5 1011.5 - 0.0 - - 10 - - - -
23/07:30pm 30.1 S 5 6 1011.1 - 0.0 - - 10 - - - -
23/07:00pm 30.2 SE 3 4 1010.7 - 0.0 - - 10 - - - -
23/06:30pm 31.4 SSE 5 6 1010.3 - 0.0 - - 10 - - - -
23/06:00pm 32.0 SSE 6 7 1009.9 - 0.0 - - 10 - - - -
23/05:30pm 33.1 SSE 6 8 1009.6 - 0.0 - - 10 - - - -
23/05:00pm 34.6 ESE 5 6 1009.1 - 0.0 - - 10 - - - -
23/04:30pm 35.7 ESE 7 11 1009.0 - 0.0 - - 10 - - - -
23/04:00pm 36.2 SE 6 10 1008.9 - 0.0 - - 10 - - - -
23/03:30pm 36.3 SE 8 12 1008.8 - 0.0 - - 10 - - - -
23/03:00pm 36.6 SE 8 12 1008.8 - 0.0 - - 10 - - - -
23/02:30pm 37.1 ESE 8 12 1008.8 - 0.0 - - 10 - - - -
23/02:00pm 36.7 ESE 8 11 1008.8 - 0.0 - - 10 - - - -
23/01:30pm 37.0 SE 8 13 1009.1 - 0.0 - - 10 - - - -
23/01:00pm 36.2 ESE 6 10 1009.3 - 0.0 - - 10 - - - -
23/12:30pm 36.3 ESE 8 11 1009.7 - 0.0 - - 10 - - - -
23/12:00pm 35.7 E 8 11 1010.2 - 0.0 - - 10 - - - -
23/11:30am 35.3 E 8 13 1010.8 - 0.0 - - 10 - - - -
23/11:00am 34.8 ESE 8 12 1011.3 - 0.0 - - 10 - - - -
23/10:30am 34.2 ESE 7 12 1011.7 - 0.0 - - 10 - - - -
23/10:00am 33.5 ESE 10 13 1012.2 - 0.0 - - 10 - - - -
23/09:30am 32.6 ESE 11 15 1012.5 - 0.0 - - 10 - - - -
23/09:00am 32.1 ESE 10 13 1012.3 - 0.0 - - 10 - - - -
23/08:30am 30.6 SE 9 12 1012.3 - 0.0 - - 10 - - - -
23/08:00am 29.2 SE 9 11 1012.2 - 0.0 - - 10 - - - -
23/07:30am 27.5 SSE 8 10 1012.0 - 0.0 - - 10 - - - -
23/07:00am 26.5 S 5 7 1012.0 - 0.0 - - 10 - - - -
23/06:30am 25.3 S 4 4 1011.6 - 0.0 - Partly cloudy 10 - - - -
23/06:00am 24.7 SSE 3 4 1011.4 - 0.0 - Partly cloudy 10 - - - -
23/05:30am 24.9 S 4 5 1011.1 - 0.0 - Partly cloudy 10 - - - -
23/05:00am 25.3 SSE 5 5 1010.9 - 0.0 - Partly cloudy 10 - - - -
23/04:30am 25.4 SSE 4 5 1010.8 - 0.0 - Partly cloudy 10 - - - -
23/04:00am 25.5 SSE 6 7 1010.5 - 0.0 - - 10 - - - -
23/03:30am 25.6 S 6 6 1010.5 - 0.0 - Partly cloudy 10 - - - -
23/03:00am 26.3 SSE 7 8 1010.6 - 0.0 - - 10 - - - -
23/02:30am 26.5 SSE 6 7 1010.5 - 0.0 - - 10 - - - -
23/02:00am 26.6 SSE 6 8 1010.5 - 0.0 - Partly cloudy 10 - - - -
23/01:30am 26.6 S 6 7 1010.7 - 0.0 - Partly cloudy 10 - - - -
23/01:00am 26.6 SSE 6 7 1010.9 - 0.0 - Partly cloudy 10 - - - -
23/12:30am 26.5 S 6 7 1010.9 - 0.0 - Partly cloudy 10 - - - -
23/12:00am 26.7 S 5 6 1010.9 - 0.0 - - 10 - - - -
 
Date/Time
WST
Temp
°C
Wind Pressure Rain since
9am
mm
Weather Cloud Vis
km
Sea
Height
m
Swell
Dir  Spd
kts
Gust
kts
hPa Trend Height
m
Period
s
Dir
22/11:30pm 27.1 SSE 4 5 1011.2 - 0.0 - - 10 - - - -
22/11:00pm 27.5 SSE 5 6 1011.2 - 0.0 - - 10 - - - -
22/10:30pm 27.8 SE 5 6 1011.3 - 0.0 - - 10 - - - -
22/10:00pm 27.9 SE 5 5 1011.4 - 0.0 - - 10 - - - -
22/09:30pm 28.1 SSE 5 5 1011.5 - 0.0 - - 10 - - - -
22/09:00pm 28.7 SSE 4 5 1011.5 - 0.0 - - 10 - - - -
22/08:30pm 29.2 SSE 6 6 1011.6 - 0.0 - - 10 - - - -
22/08:00pm 29.7 SSE 4 5 1011.5 - 0.0 - - 10 - - - -
22/07:30pm 30.1 SSE 5 6 1011.2 - 0.0 - - 10 - - - -
22/07:00pm 30.7 SSE 5 5 1010.8 - 0.0 - - 10 - - - -
22/06:30pm 31.4 SSE 4 5 1010.5 - 0.0 - - 10 - - - -
22/06:00pm 32.1 SE 4 5 1010.1 - 0.0 - - 10 - - - -
22/05:30pm 33.0 SE 6 7 1009.8 - 0.0 - - 10 - - - -
22/05:00pm 33.8 SE 7 10 1009.6 - 0.0 - - 10 - - - -
22/04:30pm 34.9 SE 7 9 1009.3 - 0.0 - - 10 - - - -
22/04:00pm 36.2 E 9 13 1009.0 - 0.0 - - 10 - - - -
22/03:30pm 36.5 ESE 8 13 1008.9 - 0.0 - - 10 - - - -
22/03:00pm 36.6 E 8 11 1008.9 - 0.0 - - 10 - - - -
22/02:30pm 36.8 ESE 7 10 1009.0 - 0.0 - - 10 - - - -
22/02:00pm 36.8 E 6 10 1009.1 - 0.0 - - 10 - - - -
22/01:30pm 36.9 E 7 12 1009.3 - 0.0 - - 10 - - - -
22/01:00pm 36.6 ESE 6 9 1009.6 - 0.0 - - 10 - - - -
22/12:30pm 36.6 ESE 5 11 1009.8 - 0.0 - - 10 - - - -
22/12:00pm 35.7 ESE 7 11 1010.4 - 0.0 - - 10 - - - -
22/11:30am 35.4 ESE 7 12 1011.0 - 0.0 - - 10 - - - -
22/11:00am 34.9 E 9 12 1011.4 - 0.0 - - 10 - - - -
22/10:30am 34.3 ESE 7 10 1011.9 - 0.0 - - 10 - - - -
22/10:00am 33.7 E 9 12 1012.2 - 0.0 - - 10 - - - -
22/09:30am 32.8 E 7 10 1012.4 - 0.0 - - 10 - - - -
22/09:00am 31.7 SE 9 11 1012.5 - 0.0 - - 10 - - - -
22/08:30am 31.1 SE 9 11 1012.5 - 0.0 - - 10 - - - -
22/08:00am 29.8 SE 8 10 1012.5 - 0.0 - - 10 - - - -
22/07:30am 28.0 SSE 8 11 1012.4 - 0.0 - - 10 - - - -
22/07:00am 26.5 SSE 7 9 1012.2 - 0.0 - - 10 - - - -
22/06:30am 25.4 SSE 8 10 1012.1 - 0.0 - Partly cloudy 10 - - - -
22/06:00am 25.1 S 7 10 1011.9 - 0.0 - Partly cloudy 10 - - - -
22/05:30am 25.1 S 7 9 1011.6 - 0.0 - Partly cloudy 10 - - - -
22/05:00am 25.3 S 8 10 1011.4 - 0.0 - - 10 - - - -
22/04:30am 25.4 S 6 8 1011.2 - 0.0 - - 10 - - - -
22/04:00am 25.3 S 6 7 1011.0 - 0.0 - - 10 - - - -
22/03:30am 25.3 S 5 7 1010.8 - 0.0 - - 10 - - - -
22/03:00am 25.7 SSW 5 6 1010.9 - 0.0 - - 10 - - - -
22/02:30am 26.0 SSW 6 7 1010.7 - 0.0 - - 10 - - - -
22/02:00am 26.2 SSW 6 7 1010.7 - 0.0 - - 10 - - - -
22/01:30am 26.2 SW 6 6 1010.9 - 0.0 - - 10 - - - -
22/01:00am 26.4 SW 5 6 1011.0 - 0.0 - - 10 - - - -
22/12:30am 26.4 SW 7 7 1011.3 - 0.0 - Partly cloudy 10 - - - -
22/12:00am 26.9 SSW 4 5 1011.5 - 0.0 - - 10 - - - -
 
Date/Time
WST
Temp
°C
Wind Pressure Rain since
9am
mm
Weather Cloud Vis
km
Sea
Height
m
Swell
Dir  Spd
kts
Gust
kts
hPa Trend Height
m
Period
s
Dir
21/11:30pm 26.9 S 5 5 1011.6 - 0.0 - - 10 - - - -
21/11:00pm 27.3 S 5 6 1011.9 - 0.0 - - 10 - - - -
21/10:30pm 27.7 S 5 5 1012.0 - 0.0 - - 10 - - - -
21/10:00pm 28.0 SSE 4 5 1012.1 - 0.0 - - 10 - - - -
21/09:30pm 28.4 S 5 5 1012.1 - 0.0 - - 10 - - - -
21/09:00pm 28.9 SSE 4 4 1012.2 - 0.0 - - 10 - - - -
21/08:30pm 29.1 S 5 6 1012.3 - 0.0 - - 10 - - - -
21/08:00pm 29.4 SE 4 5 1012.1 - 0.0 - - 10 - - - -
21/07:30pm 30.4 SSE 5 5 1011.9 - 0.0 - - 10 - - - -
21/07:00pm 30.8 SSE 5 6 1011.5 - 0.0 - - 10 - - - -
21/06:30pm 31.2 SE 5 6 1010.9 - 0.0 - - 10 - - - -
21/06:00pm 31.8 SE 6 7 1010.6 - 0.0 - - 10 - - - -
21/05:30pm 32.6 SE 7 8 1010.3 - 0.0 - - 10 - - - -
21/05:00pm 33.7 SE 7 10 1010.2 - 0.0 - - 10 - - - -
21/04:30pm 34.7 SE 8 11 1009.8 - 0.0 - - 10 - - - -
21/04:00pm 35.2 SE 8 13 1009.4 - 0.0 - - 10 - - - -
21/03:30pm 35.5 ESE 8 12 1009.5 - 0.0 - Partly cloudy 10 - - - -
21/03:00pm 36.0 SE 8 12 1009.6 - 0.0 - - 10 - - - -
21/02:30pm 35.6 ESE 9 13 1009.8 - 0.0 - Partly cloudy 10 - - - -
21/02:00pm 35.9 ESE 6 11 1009.9 - 0.0 - - 10 - - - -
21/01:30pm 35.5 SE 9 12 1010.2 - 0.0 - - 10 - - - -
21/01:00pm 35.3 SE 9 13 1010.6 - 0.0 - - 10 - - - -
21/12:30pm 35.2 SE 8 13 1011.0 - 0.0 - - 10 - - - -
21/12:00pm 34.7 SE 10 13 1011.6 - 0.0 - - 10 - - - -
21/11:30am 34.8 SE 10 15 1012.1 - 0.0 - - 10 - - - -

Other Formats:

Comma delimited format used in spreadsheet applications
http://www.bom.gov.au/fwo/IDW60701/IDW60701.95205.axf

JavaScript Object Notation format (JSON) in row-major order
http://www.bom.gov.au/fwo/IDW60701/IDW60701.95205.json